Time;durP1;ratioP1;P1;durP2;ratioP2;P2;SDS_P1;SDS_P2;PMS_P1;PMS_P2;Temp;Humidity;BMP_temperature;BMP_pressure;BME280_temperature;BME280_humidity;BME280_pressure;Samples;Min_cycle;Max_cycle;Signal;HPM_P1;HPM_P2
2023/08/19 00:01:38;;;;;;;24.95;17.65;;;;;;;21.31;100.00;101139.47;5071552;28;20059;-66
2023/08/19 00:04:04;;;;;;;24.13;17.65;;;;;;;21.29;100.00;101138.91;5071147;28;20036;-66
2023/08/19 00:06:35;;;;;;;26.20;18.42;;;;;;;21.29;100.00;101140.81;5090599;28;20036;-67
2023/08/19 00:09:03;;;;;;;25.73;17.98;;;;;;;21.24;100.00;101130.72;5071190;28;20376;-66
2023/08/19 00:11:29;;;;;;;25.95;16.25;;;;;;;21.18;100.00;101129.88;5089875;28;20027;-67
2023/08/19 00:13:54;;;;;;;25.45;17.77;;;;;;;21.16;100.00;101126.59;5090385;28;20475;-67
2023/08/19 00:16:20;;;;;;;29.13;20.45;;;;;;;21.14;100.00;101120.63;5090432;28;20071;-66
2023/08/19 00:18:45;;;;;;;28.80;19.70;;;;;;;21.12;100.00;101119.25;5090212;28;20035;-66
2023/08/19 00:21:11;;;;;;;30.17;21.77;;;;;;;21.11;100.00;101114.91;5090194;28;20026;-67
2023/08/19 00:23:37;;;;;;;29.10;20.40;;;;;;;21.10;100.00;101111.38;5090245;28;20097;-67
2023/08/19 00:26:02;;;;;;;29.08;20.45;;;;;;;21.10;100.00;101121.41;5090177;28;20644;-67
2023/08/19 00:28:27;;;;;;;25.38;19.10;;;;;;;21.06;100.00;101120.28;5090070;28;20051;-67
2023/08/19 00:30:53;;;;;;;27.65;19.35;;;;;;;21.02;100.00;101115.38;5090161;28;20039;-66
2023/08/19 00:33:18;;;;;;;25.42;18.33;;;;;;;20.99;100.00;101115.91;5089894;28;20065;-67
2023/08/19 00:35:43;;;;;;;27.48;19.00;;;;;;;21.04;100.00;101117.00;5089923;28;20023;-66
2023/08/19 00:38:09;;;;;;;28.40;20.90;;;;;;;21.05;100.00;101122.19;5090107;28;20024;-66
2023/08/19 00:40:34;;;;;;;30.20;20.15;;;;;;;21.06;100.00;101117.56;5089931;28;20502;-66
2023/08/19 00:43:00;;;;;;;27.08;19.52;;;;;;;21.08;100.00;101121.66;5089876;28;20049;-66
2023/08/19 00:45:26;;;;;;;26.92;18.23;;;;;;;21.06;100.00;101123.00;5089889;28;20106;-67
2023/08/19 00:47:51;;;;;;;24.25;18.63;;;;;;;21.02;100.00;101128.13;5089732;28;20479;-66
2023/08/19 00:50:16;;;;;;;29.05;19.80;;;;;;;21.01;100.00;101130.03;5089281;28;20109;-66
2023/08/19 00:52:44;;;;;;;26.02;18.50;;;;;;;20.94;100.00;101128.63;5089535;28;20126;-66
2023/08/19 00:55:09;;;;;;;28.17;20.50;;;;;;;20.97;100.00;101128.91;5089362;28;20627;-66
2023/08/19 00:57:36;;;;;;;29.58;19.75;;;;;;;20.98;100.00;101121.59;5089465;28;20074;-67
2023/08/19 01:00:03;;;;;;;27.58;19.88;;;;;;;20.92;100.00;101120.72;5088034;28;20113;-67
2023/08/19 01:02:29;;;;;;;30.08;21.20;;;;;;;20.94;100.00;101121.28;5089302;28;20062;-67
2023/08/19 01:04:54;;;;;;;31.98;23.15;;;;;;;20.96;100.00;101126.47;5089305;28;20440;-66
2023/08/19 01:07:40;;;;;;;29.45;20.50;;;;;;;20.92;100.00;101120.72;5088014;28;20126;-66
2023/08/19 01:10:39;;;;;;;30.35;20.77;;;;;;;20.93;100.00;101121.53;5089349;28;20500;-66
2023/08/19 01:13:12;;;;;;;28.38;20.30;;;;;;;20.83;100.00;101111.44;5069462;28;20043;-67
2023/08/19 01:15:55;;;;;;;26.88;19.88;;;;;;;20.86;100.00;101115.53;5068335;28;20551;-67
2023/08/19 01:18:23;;;;;;;28.17;18.65;;;;;;;20.84;100.00;101115.78;5088795;28;20039;-67
2023/08/19 01:20:49;;;;;;;26.58;18.27;;;;;;;20.81;100.00;101107.38;5089149;28;20028;-66
2023/08/19 01:23:29;;;;;;;30.45;22.23;;;;;;;20.80;100.00;101111.94;5088202;28;20032;-66
2023/08/19 01:25:55;;;;;;;27.45;20.15;;;;;;;20.76;100.00;101108.94;5089130;28;20028;-67
2023/08/19 01:28:20;;;;;;;27.15;19.83;;;;;;;20.79;100.00;101110.31;5089060;28;20456;-67
2023/08/19 01:30:46;;;;;;;28.33;20.80;;;;;;;20.78;100.00;101103.28;5088986;28;20028;-67
2023/08/19 01:33:12;;;;;;;27.42;20.15;;;;;;;20.80;100.00;101109.22;5088974;28;20369;-67
2023/08/19 01:35:43;;;;;;;31.77;20.55;;;;;;;20.79;100.00;101099.47;5089058;28;20588;-66
2023/08/19 01:38:37;;;;;;;28.30;20.30;;;;;;;20.81;100.00;101091.91;5088903;28;20028;-67
2023/08/19 01:41:04;;;;;;;28.67;19.98;;;;;;;20.78;100.00;101092.44;5089097;28;20027;-66
2023/08/19 01:43:31;;;;;;;26.83;18.38;;;;;;;20.77;100.00;101086.16;5088768;28;20028;-67
2023/08/19 01:45:57;;;;;;;25.58;18.75;;;;;;;20.79;100.00;101085.94;5088673;28;20123;-66
2023/08/19 01:48:22;;;;;;;27.50;20.27;;;;;;;20.83;100.00;101078.91;5088855;28;20111;-67
2023/08/19 01:50:48;;;;;;;27.65;19.17;;;;;;;20.85;100.00;101082.16;5088399;28;20052;-67
2023/08/19 01:53:13;;;;;;;28.45;20.92;;;;;;;20.90;100.00;101074.06;5088785;28;20024;-67
2023/08/19 01:55:38;;;;;;;28.48;21.20;;;;;;;20.85;100.00;101082.16;5088822;28;20063;-66
2023/08/19 01:58:04;;;;;;;31.33;20.30;;;;;;;20.88;100.00;101073.53;5088677;28;20115;-66
2023/08/19 02:00:29;;;;;;;27.50;20.65;;;;;;;20.92;100.00;101071.94;5088550;28;20123;-66
2023/08/19 02:02:54;;;;;;;28.85;21.23;;;;;;;20.94;100.00;101067.06;5087188;28;20032;-66
2023/08/19 02:05:20;;;;;;;29.40;22.52;;;;;;;20.98;100.00;101076.28;5088555;28;20054;-67
2023/08/19 02:07:45;;;;;;;27.35;20.83;;;;;;;20.98;100.00;101075.47;5088720;28;20032;-66
2023/08/19 02:10:12;;;;;;;26.27;18.30;;;;;;;20.99;100.00;101072.53;5088679;28;20024;-67
2023/08/19 02:12:37;;;;;;;28.10;21.17;;;;;;;21.00;100.00;101073.34;5088300;28;20032;-67
2023/08/19 02:15:03;;;;;;;29.75;21.83;;;;;;;21.01;100.00;101064.09;5088469;28;20059;-66
2023/08/19 02:17:28;;;;;;;28.70;20.10;;;;;;;21.02;100.00;101063.88;5087273;28;20035;-67
2023/08/19 02:19:54;;;;;;;27.63;20.88;;;;;;;21.03;100.00;101075.53;5088441;28;20024;-67
2023/08/19 02:22:20;;;;;;;28.55;21.00;;;;;;;21.06;100.00;101072.28;5088511;28;20057;-67
2023/08/19 02:24:47;;;;;;;27.55;20.20;;;;;;;21.04;100.00;101071.75;5088364;28;20032;-66
2023/08/19 02:27:12;;;;;;;29.10;19.90;;;;;;;21.02;100.00;101063.88;5069273;28;20445;-66
2023/08/19 02:29:37;;;;;;;28.25;21.23;;;;;;;21.05;100.00;101059.81;5068960;28;20028;-66
2023/08/19 02:32:03;;;;;;;30.10;20.48;;;;;;;21.08;100.00;101056.56;5067756;28;20032;-66
2023/08/19 02:34:28;;;;;;;26.73;19.95;;;;;;;21.09;100.00;101054.66;5070912;28;20036;-66
2023/08/19 02:36:54;;;;;;;30.73;20.05;;;;;;;21.10;100.00;101051.72;5072860;28;20492;-67
2023/08/19 02:39:19;;;;;;;31.08;19.92;;;;;;;21.12;100.00;101054.97;5072792;28;20064;-67
2023/08/19 02:41:44;;;;;;;26.25;18.67;;;;;;;21.14;100.00;101052.84;5072534;28;20043;-67
2023/08/19 02:44:10;;;;;;;27.48;19.83;;;;;;;21.18;100.00;101053.09;5072740;28;20025;-67
2023/08/19 02:46:35;;;;;;;24.25;17.35;;;;;;;21.17;100.00;101048.78;5072709;28;20033;-67
2023/08/19 02:49:00;;;;;;;25.88;18.70;;;;;;;21.19;100.00;101046.59;5072602;28;20649;-66
2023/08/19 02:51:26;;;;;;;26.40;20.77;;;;;;;21.20;100.00;101046.34;5072541;28;20028;-66
2023/08/19 02:53:52;;;;;;;25.58;18.95;;;;;;;21.19;100.00;101046.59;5072663;28;20040;-67
2023/08/19 02:56:17;;;;;;;25.73;18.80;;;;;;;21.21;100.00;101039.00;5072958;28;20062;-67
2023/08/19 02:58:42;;;;;;;24.50;18.55;;;;;;;21.20;100.00;101043.63;5078406;28;20157;-67
2023/08/19 03:01:12;;;;;;;27.17;19.20;;;;;;;21.22;100.00;101041.47;5092065;28;20126;-67
2023/08/19 03:03:37;;;;;;;25.42;18.20;;;;;;;21.24;100.00;101039.28;5091608;28;20032;-67
2023/08/19 03:06:03;;;;;;;24.83;17.40;;;;;;;21.24;100.00;101036.59;5090487;28;20031;-67
2023/08/19 03:08:28;;;;;;;23.88;15.60;;;;;;;21.26;100.00;101036.34;5091556;28;20037;-67
2023/08/19 03:10:54;;;;;;;21.55;15.43;;;;;;;21.28;100.00;101042.31;5091618;28;21000;-66
2023/08/19 03:13:19;;;;;;;25.60;16.67;;;;;;;21.31;100.00;101049.94;5091910;28;20037;-66
2023/08/19 03:15:44;;;;;;;23.95;16.92;;;;;;;21.33;100.00;101042.34;5091550;28;20028;-67
2023/08/19 03:18:10;;;;;;;23.25;15.95;;;;;;;21.33;100.00;101045.06;5091330;28;20380;-67
2023/08/19 03:20:35;;;;;;;23.23;16.08;;;;;;;21.33;100.00;101034.22;5091469;28;20498;-67
2023/08/19 03:23:01;;;;;;;24.20;17.17;;;;;;;21.31;100.00;101041.78;5091284;28;20407;-67
2023/08/19 03:25:26;;;;;;;24.25;15.68;;;;;;;21.33;100.00;101045.06;5091145;28;20132;-67
2023/08/19 03:27:51;;;;;;;24.58;14.93;;;;;;;21.33;100.00;101042.34;5091389;28;20032;-66
2023/08/19 03:30:17;;;;;;;20.25;13.63;;;;;;;21.35;100.00;101031.22;5091826;28;20467;-66
2023/08/19 03:32:42;;;;;;;19.77;15.02;;;;;;;21.36;100.00;101041.00;5091098;28;20028;-67
2023/08/19 03:35:08;;;;;;;22.08;15.70;;;;;;;21.37;100.00;101040.72;5091376;28;20039;-67
2023/08/19 03:37:33;;;;;;;21.85;15.07;;;;;;;21.37;100.00;101034.47;5091156;28;20439;-66
2023/08/19 03:39:59;;;;;;;20.83;14.10;;;;;;;21.36;100.00;101028.25;5091038;28;20039;-67
2023/08/19 03:42:25;;;;;;;23.67;16.13;;;;;;;21.37;100.00;101029.06;5091375;28;20039;-66
2023/08/19 03:44:50;;;;;;;22.15;13.73;;;;;;;21.37;100.00;101021.72;5089234;28;20103;-66
2023/08/19 03:47:16;;;;;;;22.85;14.40;;;;;;;21.37;100.00;101026.34;5090414;28;20272;-67
2023/08/19 03:49:41;;;;;;;21.88;14.50;;;;;;;21.39;100.00;101037.78;5090691;28;20078;-67
2023/08/19 03:52:08;;;;;;;21.02;13.65;;;;;;;21.37;100.00;101031.75;5091015;28;20027;-66
2023/08/19 03:54:33;;;;;;;22.00;15.30;;;;;;;21.38;100.00;101036.97;5090879;28;20055;-66
2023/08/19 03:56:59;;;;;;;28.75;14.68;;;;;;;21.40;100.00;101036.69;5090786;28;21095;-66
2023/08/19 03:59:25;;;;;;;20.73;14.70;;;;;;;21.41;100.00;101041.06;5090568;28;20080;-66
2023/08/19 04:01:50;;;;;;;20.02;13.40;;;;;;;21.41;100.00;101033.72;5090652;28;20028;-66
2023/08/19 04:04:16;;;;;;;22.65;14.05;;;;;;;21.44;100.00;101048.66;5090948;28;20540;-67
2023/08/19 04:06:41;;;;;;;22.83;13.32;;;;;;;21.45;100.00;101048.38;5090716;28;20471;-67
2023/08/19 04:09:08;;;;;;;20.60;13.23;;;;;;;21.47;100.00;101039.19;5090840;28;20038;-66
2023/08/19 04:11:33;;;;;;;23.48;13.35;;;;;;;21.44;100.00;101035.91;5090425;28;20036;-67
2023/08/19 04:13:59;;;;;;;23.90;13.90;;;;;;;21.46;100.00;101032.94;5090388;28;20028;-66
2023/08/19 04:16:24;;;;;;;20.48;14.40;;;;;;;21.44;100.00;101035.91;5090205;28;20383;-67
2023/08/19 04:18:50;;;;;;;22.63;13.70;;;;;;;21.45;100.00;101037.53;5090096;28;20039;-66
2023/08/19 04:21:16;;;;;;;20.67;12.77;;;;;;;21.49;100.00;101042.44;5090338;28;20107;-66
2023/08/19 04:23:41;;;;;;;18.83;11.73;;;;;;;21.50;100.00;101034.03;5090526;28;20181;-66
2023/08/19 04:26:07;;;;;;;18.40;11.73;;;;;;;21.53;100.00;101033.50;5090144;28;20024;-66
2023/08/19 04:28:32;;;;;;;21.40;12.90;;;;;;;21.56;100.00;101029.44;5089991;28;20039;-66
2023/08/19 04:31:06;;;;;;;20.67;12.20;;;;;;;21.56;100.00;101043.00;5090121;28;20032;-66
2023/08/19 04:33:32;;;;;;;19.27;11.98;;;;;;;21.56;100.00;101049.28;5089863;28;20028;-66
2023/08/19 04:35:57;;;;;;;21.15;12.73;;;;;;;21.58;100.00;101049.00;5089911;28;20032;-66
2023/08/19 04:38:23;;;;;;;19.75;11.80;;;;;;;21.59;100.00;101048.72;5089235;28;20486;-66
2023/08/19 04:40:48;;;;;;;19.85;12.63;;;;;;;21.59;100.00;101048.72;5088955;28;20032;-66
2023/08/19 04:43:13;;;;;;;21.25;12.43;;;;;;;21.60;100.00;101049.53;5089293;28;20119;-66
2023/08/19 04:45:39;;;;;;;22.30;12.40;;;;;;;21.60;100.00;101053.06;5087106;28;20059;-66
2023/08/19 04:48:05;;;;;;;19.30;11.82;;;;;;;21.61;100.00;101054.72;5088890;28;20074;-66
2023/08/19 04:50:31;;;;;;;17.73;11.52;;;;;;;21.60;100.00;101052.25;5088275;28;20048;-66
2023/08/19 04:52:57;;;;;;;18.98;11.25;;;;;;;21.64;100.00;101067.75;5088681;28;20120;-67
2023/08/19 04:55:22;;;;;;;15.30;10.43;;;;;;;21.65;100.00;101060.41;5088644;28;20036;-66
2023/08/19 04:57:47;;;;;;;16.88;10.80;;;;;;;21.65;100.00;101065.84;5088547;28;20084;-66
2023/08/19 05:00:13;;;;;;;16.70;11.32;;;;;;;21.66;100.00;101067.47;5088636;28;20056;-66
2023/08/19 05:02:39;;;;;;;17.10;11.25;;;;;;;21.67;100.00;101069.13;5088775;28;20040;-66
2023/08/19 05:05:05;;;;;;;20.50;10.95;;;;;;;21.68;100.00;101068.03;5089383;28;20032;-66
2023/08/19 05:07:30;;;;;;;17.38;11.73;;;;;;;21.66;100.00;101060.13;5089080;28;20468;-67
2023/08/19 05:09:56;;;;;;;16.50;10.85;;;;;;;21.67;100.00;101060.97;5089057;28;20028;-67
2023/08/19 05:12:23;;;;;;;16.05;10.32;;;;;;;21.66;100.00;101053.91;5087902;28;20020;-67
2023/08/19 05:14:48;;;;;;;19.00;11.68;;;;;;;21.67;100.00;101048.22;5088007;28;20677;-66
2023/08/19 05:17:14;;;;;;;20.88;10.55;;;;;;;21.66;100.00;101037.63;5089175;28;20106;-67
2023/08/19 05:19:39;;;;;;;18.83;11.57;;;;;;;21.67;100.00;101045.50;5088895;28;20586;-67
2023/08/19 05:22:05;;;;;;;19.30;11.65;;;;;;;21.66;100.00;101052.00;5089089;28;20028;-67
2023/08/19 05:24:30;;;;;;;17.55;11.95;;;;;;;21.66;100.00;101056.63;5087531;28;20493;-67
2023/08/19 05:26:55;;;;;;;17.80;10.07;;;;;;;21.67;100.00;101061.78;5088972;28;20020;-66
2023/08/19 05:29:21;;;;;;;16.55;11.13;;;;;;;21.67;100.00;101071.84;5088770;28;20051;-67
2023/08/19 05:31:46;;;;;;;17.45;10.48;;;;;;;21.68;100.00;101065.31;5088588;28;20044;-67
2023/08/19 05:34:11;;;;;;;18.65;9.75;;;;;;;21.70;100.00;101076.72;5088761;28;20598;-66
2023/08/19 05:36:37;;;;;;;17.48;10.73;;;;;;;21.72;100.00;101069.16;5088666;28;20035;-67
2023/08/19 05:39:03;;;;;;;17.38;10.10;;;;;;;21.75;100.00;101073.22;5088778;28;20044;-66
2023/08/19 05:41:28;;;;;;;15.43;10.60;;;;;;;21.75;100.00;101074.03;5086988;28;20394;-67
2023/08/19 05:43:54;;;;;;;18.00;10.23;;;;;;;21.77;100.00;101071.88;5066774;28;20047;-67
2023/08/19 05:46:19;;;;;;;18.42;11.27;;;;;;;21.80;100.00;101084.13;5067317;28;20360;-67
2023/08/19 05:48:45;;;;;;;16.75;9.68;;;;;;;21.81;100.00;101077.59;5087377;28;20020;-66
2023/08/19 05:51:10;;;;;;;15.55;10.48;;;;;;;21.82;100.00;101087.34;5088419;28;20034;-67
2023/08/19 05:53:35;;;;;;;17.52;9.82;;;;;;;21.87;100.00;101079.22;5087738;28;20446;-66
2023/08/19 05:56:01;;;;;;;18.65;9.25;;;;;;;21.89;100.00;101083.31;5088600;28;20054;-66
2023/08/19 05:58:27;;;;;;;18.50;9.82;;;;;;;21.95;100.00;101086.84;5088526;28;20039;-66
2023/08/19 06:01:06;;;;;;;15.23;10.40;;;;;;;22.00;100.00;101084.16;5088455;28;20357;-67
2023/08/19 06:03:32;;;;;;;18.23;10.77;;;;;;;22.05;100.00;101084.16;5088481;28;20224;-67
2023/08/19 06:06:02;;;;;;;20.38;10.32;;;;;;;22.10;100.00;101091.53;5088402;28;20031;-66
2023/08/19 06:08:28;;;;;;;14.68;9.25;;;;;;;22.15;100.00;101086.09;5088627;28;20036;-67
2023/08/19 06:11:01;;;;;;;16.02;8.52;;;;;;;22.19;100.00;101079.09;5091231;28;20088;-67
2023/08/19 06:13:27;;;;;;;13.32;8.27;;;;;;;22.20;100.00;101078.00;5092574;28;20024;-66
2023/08/19 06:15:52;;;;;;;15.27;9.68;;;;;;;22.22;100.00;101081.25;5092428;28;20360;-66
2023/08/19 06:18:18;;;;;;;15.65;9.60;;;;;;;22.25;100.00;101085.34;5092438;28;20039;-66
2023/08/19 06:20:43;;;;;;;18.00;9.85;;;;;;;22.25;100.00;101080.72;5092524;28;20467;-66
2023/08/19 06:23:08;;;;;;;16.42;9.70;;;;;;;22.29;100.00;101089.13;5092403;28;20082;-66
2023/08/19 06:25:34;;;;;;;16.00;8.63;;;;;;;22.32;100.00;101088.59;5092431;28;20067;-66
2023/08/19 06:27:59;;;;;;;16.55;9.65;;;;;;;22.36;100.00;101092.41;5092300;28;20371;-67
2023/08/19 06:30:24;;;;;;;16.83;10.50;;;;;;;22.37;100.00;101091.31;5092021;28;20032;-66
2023/08/19 06:32:50;;;;;;;15.80;8.77;;;;;;;22.41;100.00;101100.59;5092360;28;20032;-66
2023/08/19 06:35:15;;;;;;;16.95;8.48;;;;;;;22.41;100.00;101099.78;5072913;28;20032;-66
2023/08/19 06:37:42;;;;;;;18.15;9.75;;;;;;;22.46;100.00;101108.75;5072925;28;20029;-66
2023/08/19 06:40:12;;;;;;;14.95;8.23;;;;;;;22.52;100.00;101113.09;5091819;28;20046;-67
2023/08/19 06:42:39;;;;;;;13.82;8.73;;;;;;;22.57;100.00;101111.47;5091967;28;20020;-66
2023/08/19 06:45:06;;;;;;;17.70;8.55;;;;;;;22.58;100.00;101110.38;5091963;28;20077;-66
2023/08/19 06:47:33;;;;;;;16.58;8.73;;;;;;;22.70;100.00;101119.09;5072536;28;20287;-66
2023/08/19 06:49:59;;;;;;;35.92;11.43;;;;;;;22.74;100.00;101131.88;5091658;28;20173;-66
2023/08/19 06:52:24;;;;;;;15.02;8.27;;;;;;;22.80;100.00;101119.09;5091559;28;20054;-66
2023/08/19 06:54:50;;;;;;;18.85;9.40;;;;;;;22.91;100.00;101122.63;5091730;28;20543;-66
2023/08/19 06:57:28;;;;;;;13.85;9.15;;;;;;;23.01;100.00;101127.28;5091794;28;20024;-67
2023/08/19 07:00:09;;;;;;;13.93;8.77;;;;;;;23.11;100.00;101133.53;5091845;28;20372;-66
2023/08/19 07:02:37;;;;;;;20.27;9.10;;;;;;;23.21;100.00;101137.31;5091951;28;20368;-67
2023/08/19 07:05:08;;;;;;;15.00;8.98;;;;;;;23.29;100.00;101134.88;5091711;28;20035;-67
2023/08/19 07:07:34;;;;;;;17.33;9.27;;;;;;;23.36;100.00;101140.84;5091523;28;20024;-67
2023/08/19 07:10:00;;;;;;;15.30;9.38;;;;;;;23.44;100.00;101141.38;5091313;28;20478;-67
2023/08/19 07:12:26;;;;;;;16.25;9.23;;;;;;;23.52;100.00;101140.81;5091461;28;20028;-67
2023/08/19 07:14:51;;;;;;;14.75;8.75;;;;;;;23.60;100.00;101146.47;5090239;28;20032;-66
2023/08/19 07:17:22;;;;;;;16.75;8.80;;;;;;;23.78;100.00;101147.81;5090403;28;20043;-67
2023/08/19 07:19:50;;;;;;;15.45;8.35;;;;;;;23.85;100.00;101144.81;5090210;28;20602;-67
2023/08/19 07:22:17;;;;;;;13.73;8.93;;;;;;;23.88;100.00;101151.63;5080081;28;20434;-67
2023/08/19 07:24:43;;;;;;;17.23;9.30;;;;;;;23.87;100.00;101150.81;5091427;28;20032;-67
2023/08/19 07:27:10;;;;;;;15.30;7.93;;;;;;;23.94;100.00;101150.50;5091397;28;20073;-67
2023/08/19 07:29:37;;;;;;;11.35;7.30;;;;;;;24.00;100.00;101160.28;5091409;28;20040;-68
2023/08/19 07:32:03;;;;;;;14.93;8.32;;;;;;;24.10;100.00;101157.50;5091275;28;20044;-67
2023/08/19 07:34:29;;;;;;;16.48;8.88;;;;;;;24.18;100.00;101153.38;5091145;28;20039;-67
2023/08/19 07:36:54;;;;;;;11.98;7.53;;;;;;;24.35;100.00;101156.56;5085619;28;20039;-67
2023/08/19 07:39:20;;;;;;;12.30;7.65;;;;;;;24.54;100.00;101162.19;5090347;28;20028;-67
2023/08/19 07:41:45;;;;;;;12.60;7.70;;;;;;;24.68;100.00;101165.09;5090272;28;20209;-67
2023/08/19 07:44:10;;;;;;;15.75;8.75;;;;;;;24.90;100.00;101168.19;5090616;28;20620;-67
2023/08/19 07:46:36;;;;;;;12.52;8.07;;;;;;;25.02;100.00;101169.75;5090394;28;20039;-67
2023/08/19 07:49:01;;;;;;;13.77;8.13;;;;;;;25.03;100.00;101158.56;5089155;28;20081;-67
2023/08/19 07:51:27;;;;;;;13.77;8.23;;;;;;;25.03;100.00;101160.47;5090511;28;20048;-67
2023/08/19 07:53:52;;;;;;;12.43;7.63;;;;;;;25.06;100.00;101193.44;5090522;28;20040;-67
2023/08/19 07:56:18;;;;;;;12.88;7.47;;;;;;;25.10;100.00;101189.06;5090720;28;20028;-67
2023/08/19 07:58:44;;;;;;;13.90;7.88;;;;;;;25.22;100.00;101196.91;5077220;28;20032;-68
2023/08/19 08:01:10;;;;;;;9.07;7.43;;;;;;;25.38;100.00;101183.09;5071073;28;20040;-67
2023/08/19 08:03:38;;;;;;;11.75;7.78;;;;;;;25.62;100.00;101183.94;5070748;28;20033;-67
2023/08/19 08:06:03;;;;;;;10.85;7.63;;;;;;;25.87;100.00;101201.19;5090117;28;20429;-68
2023/08/19 08:08:29;;;;;;;11.57;7.55;;;;;;;25.96;100.00;101178.41;5090480;28;20031;-67
2023/08/19 08:10:54;;;;;;;11.02;7.15;;;;;;;25.99;100.00;101207.03;5090734;28;20077;-67
2023/08/19 08:13:20;;;;;;;14.75;8.30;;;;;;;25.83;100.00;101198.19;5090520;28;20078;-66
2023/08/19 08:15:45;;;;;;;12.52;7.57;;;;;;;25.68;100.00;101188.25;5090665;28;20042;-66
2023/08/19 08:18:10;;;;;;;14.25;7.22;;;;;;;25.55;100.00;101184.28;5077755;28;20078;-67
2023/08/19 08:20:37;;;;;;;13.85;7.95;;;;;;;25.47;100.00;101184.13;5070670;28;20494;-67
2023/08/19 08:23:02;;;;;;;11.13;6.93;;;;;;;25.40;100.00;101178.97;5070015;28;20025;-66
2023/08/19 08:25:28;;;;;;;12.65;8.13;;;;;;;25.39;100.00;101185.56;5070929;28;20047;-66
2023/08/19 08:27:54;;;;;;;15.23;7.68;;;;;;;25.38;100.00;101197.56;5089965;28;20119;-66
2023/08/19 08:30:19;;;;;;;13.63;7.68;;;;;;;25.35;100.00;101201.69;5090470;28;20990;-65
2023/08/19 08:32:45;;;;;;;10.98;7.30;;;;;;;25.34;100.00;101205.53;5089752;28;20121;-66
2023/08/19 08:35:10;;;;;;;19.13;7.63;;;;;;;25.29;100.00;101189.19;5090240;28;20036;-65
2023/08/19 08:37:35;;;;;;;12.30;7.70;;;;;;;25.26;100.00;101210.81;5090900;28;20368;-67
2023/08/19 08:40:01;;;;;;;11.75;7.28;;;;;;;25.21;100.00;101227.22;5070742;28;20047;-66
2023/08/19 08:42:26;;;;;;;14.60;7.38;;;;;;;25.18;100.00;101233.22;5070837;28;20431;-66
2023/08/19 08:44:53;;;;;;;14.60;7.78;;;;;;;25.18;100.00;101238.69;5069162;28;20122;-66
2023/08/19 08:47:20;;;;;;;17.30;7.68;;;;;;;25.18;100.00;101245.00;5073298;28;20025;-66
2023/08/19 08:49:46;;;;;;;16.48;7.68;;;;;;;25.14;100.00;101241.97;5070270;28;20040;-66
2023/08/19 08:52:12;;;;;;;13.07;8.50;;;;;;;25.10;100.00;101238.19;5089696;28;20097;-66
2023/08/19 08:54:39;;;;;;;13.63;9.23;;;;;;;25.07;100.00;101237.94;5089743;28;20028;-66
2023/08/19 08:57:05;;;;;;;13.15;8.57;;;;;;;25.03;100.00;101251.34;5089634;28;20411;-66
2023/08/19 08:59:30;;;;;;;11.32;7.82;;;;;;;24.94;100.00;101242.13;5089518;28;20024;-66
2023/08/19 09:01:58;;;;;;;14.80;9.35;;;;;;;24.87;100.00;101249.81;5089827;28;20554;-66
2023/08/19 09:04:24;;;;;;;17.88;8.60;;;;;;;24.78;100.00;101246.84;5070235;28;20044;-66
2023/08/19 09:07:04;;;;;;;14.85;8.82;;;;;;;24.73;100.00;101259.72;5070243;28;20024;-66
2023/08/19 09:09:33;;;;;;;14.95;8.45;;;;;;;24.73;100.00;101268.72;5089539;28;20382;-66
2023/08/19 09:12:00;;;;;;;18.17;9.95;;;;;;;24.67;100.00;101272.56;5089676;28;20024;-66
2023/08/19 09:14:44;;;;;;;14.65;8.32;;;;;;;24.69;100.00;101282.13;5070187;28;20043;-66
2023/08/19 09:17:14;;;;;;;14.98;9.48;;;;;;;24.66;100.00;101279.94;5069888;28;20040;-66
2023/08/19 09:19:40;;;;;;;16.13;8.93;;;;;;;24.67;100.00;101288.94;5088751;28;20103;-66
2023/08/19 09:22:24;;;;;;;14.82;8.93;;;;;;;24.67;100.00;101292.47;5089369;28;20062;-67
2023/08/19 09:24:50;;;;;;;15.32;8.15;;;;;;;24.69;100.00;101287.56;5089090;28;20085;-67
2023/08/19 09:27:26;;;;;;;23.05;8.88;;;;;;;24.78;100.00;101295.97;5089291;28;20032;-67
2023/08/19 09:29:52;;;;;;;16.48;10.05;;;;;;;24.82;100.00;101288.06;5089088;28;20063;-67
2023/08/19 09:32:32;;;;;;;14.80;8.52;;;;;;;24.91;100.00;101289.88;5089066;28;20032;-67
2023/08/19 09:35:11;;;;;;;15.30;9.00;;;;;;;25.00;100.00;101287.41;5088034;28;20039;-67
2023/08/19 09:37:37;;;;;;;14.30;8.88;;;;;;;25.07;100.00;101290.63;5069757;28;20039;-67
2023/08/19 09:40:07;;;;;;;21.70;10.95;;;;;;;25.12;100.00;101296.03;5070102;28;20024;-67
2023/08/19 09:42:33;;;;;;;17.88;10.02;;;;;;;25.16;100.00;101298.25;5088896;28;20028;-67
2023/08/19 09:44:58;;;;;;;19.85;10.13;;;;;;;25.21;100.00;101309.94;5088385;28;20070;-67
2023/08/19 09:47:24;;;;;;;18.05;9.68;;;;;;;25.25;100.00;101305.53;5087694;28;20395;-67
2023/08/19 09:49:51;;;;;;;17.50;10.48;;;;;;;25.31;100.00;101309.88;5088773;28;20098;-67
2023/08/19 09:52:17;;;;;;;16.40;9.73;;;;;;;25.43;100.00;101319.59;5088828;28;20240;-67
2023/08/19 09:54:52;;;;;;;16.27;10.85;;;;;;;25.49;100.00;101323.91;5088774;28;20036;-67
2023/08/19 09:57:30;;;;;;;17.83;10.70;;;;;;;25.63;100.00;101327.63;5088895;28;20027;-67
2023/08/19 09:59:56;;;;;;;14.63;9.60;;;;;;;25.83;100.00;101325.81;5088753;28;20028;-67
2023/08/19 10:02:21;;;;;;;18.88;10.63;;;;;;;25.93;100.00;101331.22;5070369;28;20094;-67
2023/08/19 10:04:48;;;;;;;16.73;10.77;;;;;;;25.93;100.00;101337.50;5069561;28;20033;-67
2023/08/19 10:07:16;;;;;;;17.73;11.05;;;;;;;25.90;100.00;101345.47;5069528;28;20033;-67
2023/08/19 10:09:42;;;;;;;18.75;11.15;;;;;;;25.85;100.00;101351.78;5069325;28;20721;-67
2023/08/19 10:12:11;;;;;;;19.27;11.80;;;;;;;25.83;100.00;101356.69;5069370;28;20032;-67
2023/08/19 10:14:38;;;;;;;16.65;9.82;;;;;;;25.91;100.00;101361.59;5088599;28;20035;-67
2023/08/19 10:17:05;;;;;;;19.98;11.63;;;;;;;26.05;100.00;101367.19;5088927;28;20053;-67
2023/08/19 10:19:43;;;;;;;17.40;11.27;;;;;;;26.15;100.00;101366.28;5088527;28;20032;-67
2023/08/19 10:22:12;;;;;;;25.17;12.45;;;;;;;26.22;100.00;101369.47;5088713;28;20035;-67
2023/08/19 10:24:38;;;;;;;16.67;10.65;;;;;;;26.23;100.00;101373.84;5087193;28;20047;-67
2023/08/19 10:27:03;;;;;;;15.88;11.02;;;;;;;26.21;100.00;101365.91;5088624;28;20036;-67
2023/08/19 10:29:29;;;;;;;17.35;11.35;;;;;;;26.22;100.00;101370.28;5084296;28;20337;-67
2023/08/19 10:31:54;;;;;;;18.48;11.77;;;;;;;26.21;100.00;101371.38;5068752;28;20119;-67
2023/08/19 10:34:19;;;;;;;18.42;10.50;;;;;;;26.19;100.00;101370.84;5068572;28;20033;-67
2023/08/19 10:37:04;;;;;;;17.03;11.17;;;;;;;26.22;100.00;101377.66;5068629;28;20457;-67
2023/08/19 10:39:31;;;;;;;17.58;11.05;;;;;;;26.16;100.00;101379.66;5087404;28;20313;-68
2023/08/19 10:41:56;;;;;;;19.38;11.60;;;;;;;26.11;100.00;101367.94;5088428;28;20028;-68
2023/08/19 10:44:27;;;;;;;17.83;11.13;;;;;;;26.16;100.00;101392.50;5088419;28;20040;-68
2023/08/19 10:47:08;;;;;;;18.08;11.57;;;;;;;26.13;100.00;101390.34;5088500;28;20114;-68
2023/08/19 10:49:34;;;;;;;20.63;12.23;;;;;;;26.12;100.00;101391.44;5088110;28;20075;-68
2023/08/19 10:52:05;;;;;;;15.60;11.32;;;;;;;26.09;100.00;101392.81;5088330;28;20031;-68
2023/08/19 10:54:31;;;;;;;17.95;11.65;;;;;;;26.10;100.00;101402.69;5088659;28;20024;-68
2023/08/19 10:57:08;;;;;;;21.88;12.35;;;;;;;26.09;100.00;101417.44;5092031;28;20081;-68
2023/08/19 10:59:35;;;;;;;17.85;11.68;;;;;;;25.94;100.00;101414.88;5078506;28;20326;-68
2023/08/19 11:02:00;;;;;;;17.17;11.98;;;;;;;25.88;100.00;101424.19;5072255;28;20028;-68
2023/08/19 11:04:26;;;;;;;18.30;11.57;;;;;;;25.79;100.00;101432.97;5091777;28;20030;-68